2IS5 weather

CLOSED Parrish RLA Restricted Landing Area
Lacon, Illinois, United States

Public forecast

Using degrees Fahrenheit for public forecast. Weather courtesy of forecast.io.

METAR (pilot weather report)

Closest report is Marshall County Airport, 4.1 nm (7.7 km) NNE. Retrieved 2019/06/17 10:35 UTC (0 seconds ago):

KC75 171035Z AUTO 07004KT 5SM BR OVC005 15/14 A2995 RMK AO2 T01470140

TAF (pilot weather forecast)

Closest forecast is General Wayne A. Downing Peoria International Airport, 21.6 nm (40.0 km) SW. Retrieved 2019/06/17 06:24 UTC (4 hours ago):

TAF KPIA 170523Z 1706/1806 05005KT 6SM BR SCT008 BKN012 TEMPO 1708/1711 SCT012 BKN250 FM171600 03005KT P6SM BKN021 FM171800 03005KT P6SM BKN050